Gaylord, MI

1:46 PM EST on February 10, 2016 (GMT -0500)
National Weather Service | | Change Station
CLOSE
Current Station
Personal Weather Station
Location: Gaylord, MI
Elevation: 1465 ft
Nearby Weather Stations

Elev 1465 ft 44.91 °N, 84.72 °W | Updated 10 seconds ago

Overcast
Overcast
11.0 °F
Feels Like -5 °F
N
15.0
Wind Variable Wind from NNW
Gusts 18.0 mph

Today
High -- | Low -- °F
--% Chance of Precip.
Yesterday
High -- | Low -- °F
Precip. -- in
Pressure 29.78 in
Visibility 10.0 miles
Clouds Mostly Cloudy 2600 ft
Windchill -5 °F
Dew Point 3 °F
Humidity 69%
Rainfall 0.00 in
Snow Depth Not available.
7:47 AM 5:59 PM
Waxing Crescent, 6% visible
SPECI KGLR 101614Z AUTO VRB06G19KT 10SM BKN026 M12/M18 A2978 RMK AO2 T11221183
Pressure 29.78 in
Visibility 10.0 miles
Clouds Mostly Cloudy 2600 ft
Windchill -5 °F
Dew Point 3 °F
Humidity 69%
Rainfall 0.00 in
Snow Depth Not available.
7:47 AM 5:59 PM
Waxing Crescent, 6% visible
SPECI KGLR 101614Z AUTO VRB06G19KT 10SM BKN026 M12/M18 A2978 RMK AO2 T11221183

10-Day Weather Forecast

Almanac

Astronomy

Feb. 10, 2016 Rise Set
Actual Time
Civil Twilight
Nautical Twilight
Astronomical Twilight
Moon
Length of Visible Light
Length of Day
Tomorrow will be .
, % of the Moon is Illuminated

Today's Extremes

State Highs State Lows

Community

WunderPhotos

Upload Photos

1,891,915 photos uploaded!

WunderBlog® & News

Nearby

Air Quality

  Air Quality AQ Index Pollutant
Not available.

Snow Depth

Station Depth Elevation

Earthquake Activity

City Distance Mag. Time & Date
Minimum magnitude displayed is 2.5.

Coastal Water Temperatures

Place Temperature

Stations

Nearby Weather Stations

Station Location Temp. Windchill Dew Point Humidity Wind Precip. Elev Updated Type
                   

Watches & Warnings

There are currently no watches in effect.